Sarah Ann — WDF3387 — position and weather

sailwx.info

Track history (hours):
 
Tides and Currents Weather Stations Pressure Air Temp Water Temp Dewpoint Dewpoint Depression Visibility Wind Speed Wind Dir Waves Ship Positions

Sarah Ann

Owner: Donjon Marine Co., Inc., Hillside, NJ. More information available from US FCC via Universal Licensing System and Coast Guard Vessel Documentation Center.

Last reported at 2017-Oct-20 01:00 UTC. Time now 2017-Oct-20 01:20 UTC.
Position N 40°41' W 074°05'.

Length 2 m; draft 3 m.

Type: Tug. MMSI: 366902120.

Date/timePositionNaut miles runAvg speedWind from/ knotsBaromVisibWave heightAir tempDewpointWater temp
2017-Oct-20 01:00N 40°41' W 074°05'0 0.0
2017-Oct-20 00:30N 40°41' W 074°05'0 0.0
2017-Oct-20 00:00N 40°41' W 074°05'0 0.0
2017-Oct-19 23:30N 40°41' W 074°05'0 0.0
2017-Oct-19 23:01N 40°41' W 074°05'0 0.0
2017-Oct-19 22:30N 40°41' W 074°05'0 0.0
2017-Oct-19 22:01N 40°41' W 074°05'0 0.0
2017-Oct-19 21:30N 40°41' W 074°05'0 0.0
2017-Oct-19 21:01N 40°41' W 074°05'0 0.0
2017-Oct-19 20:30N 40°41' W 074°05'1 1.8
2017-Oct-19 20:01N 40°41' W 074°04'3 5.8
2017-Oct-19 19:30N 40°39' W 074°07'2 3.8
2017-Oct-19 19:00N 40°40' W 074°08'1 1.4
2017-Oct-19 18:30N 40°40' W 074°09'3 5.5
2017-Oct-19 18:01N 40°39' W 074°05'2 4.2
2017-Oct-19 17:31N 40°41' W 074°05'2 3.3
2017-Oct-19 17:00N 40°41' W 074°02'3 6.2
2017-Oct-19 16:30N 40°44' W 074°01'3 5.7
2017-Oct-19 16:00N 40°47' W 073°60'2 4.3
2017-Oct-19 15:30N 40°49' W 073°59'3 5.3
2017-Oct-19 14:58N 40°51' W 073°57'2 4.4
2017-Oct-19 14:30N 40°53' W 073°56'5 0.1
2017-Oct-18 02:56N 40°58' W 073°54'3 7.4
2017-Oct-18 02:29N 40°55' W 073°55'4 7.7
2017-Oct-18 02:01N 40°51' W 073°57'4 8.0
2017-Oct-18 01:31N 40°48' W 073°59'4 8.3
2017-Oct-18 01:01N 40°44' W 074°01'4 7.6
2017-Oct-18 00:30N 40°40' W 074°03'1 2.6
2017-Oct-18 00:00N 40°41' W 074°05'0 0.1
2017-Oct-17 23:30N 40°41' W 074°05'0 0.2
2017-Oct-17 23:01N 40°41' W 074°04'0 0.3
2017-Oct-17 22:30N 40°41' W 074°05'0 0.0
2017-Oct-17 22:01N 40°41' W 074°05'0 0.0
2017-Oct-17 21:30N 40°41' W 074°05'0 0.0
2017-Oct-17 21:00N 40°41' W 074°05'0 0.0
2017-Oct-17 20:30N 40°41' W 074°05'0 0.0
2017-Oct-17 20:00N 40°41' W 074°05'0 0.0
2017-Oct-17 19:30N 40°41' W 074°05'0 0.0
2017-Oct-17 19:00N 40°41' W 074°05'0 0.0
2017-Oct-17 18:30N 40°41' W 074°05'0 0.0
2017-Oct-17 18:00N 40°41' W 074°05'0 0.0
2017-Oct-17 17:30N 40°41' W 074°05'0 0.0
2017-Oct-17 17:01N 40°41' W 074°05'1 1.1
2017-Oct-17 16:31N 40°41' W 074°04'1 1.5
2017-Oct-17 16:01N 40°41' W 074°03'4 7.2
2017-Oct-17 15:30N 40°44' W 074°01'2 4.1
2017-Oct-17 15:00N 40°46' W 074°00'1 1.3
2017-Oct-17 14:30N 40°45' W 074°01'3 6.9
2017-Oct-17 14:01N 40°42' W 074°02'3 6.6
2017-Oct-17 13:31N 40°39' W 074°04'4 7.2
2017-Oct-17 13:00N 40°39' W 074°09'3 5.2
2017-Oct-17 12:31N 40°41' W 074°08'0 0.2
2017-Oct-17 12:00N 40°41' W 074°08'0 0.7
2017-Oct-17 11:30N 40°41' W 074°08'0 0.8
2017-Oct-17 11:00N 40°41' W 074°08'0 0.0
2017-Oct-17 10:30N 40°41' W 074°08'0 0.0
2017-Oct-17 10:00N 40°41' W 074°08'0 0.8
2017-Oct-17 09:30N 40°42' W 074°09'3 6.4
2017-Oct-17 09:00N 40°39' W 074°09'4 7.8
2017-Oct-17 08:31N 40°40' W 074°04'4 7.4
2017-Oct-17 08:01N 40°43' W 074°01'3 5.5
2017-Oct-17 07:31N 40°46' W 074°00'0 0.6
2017-Oct-17 07:01N 40°46' W 074°00'0 0.5
2017-Oct-17 06:31N 40°46' W 074°01'0 0.3
2017-Oct-17 06:00N 40°45' W 074°01'2 3.4
2017-Oct-17 05:30N 40°44' W 074°01'2 4.5
2017-Oct-17 05:01N 40°42' W 074°02'1 2.5
2017-Oct-17 04:30N 40°41' W 074°03'0 0.0
2017-Oct-17 04:01N 40°41' W 074°03'0 0.0
2017-Oct-17 03:30N 40°41' W 074°03'0 0.0
2017-Oct-17 03:01N 40°41' W 074°03'0 0.0
2017-Oct-17 02:31N 40°41' W 074°03'0 0.0
2017-Oct-17 02:00N 40°41' W 074°03'0 0.0
2017-Oct-17 01:31N 40°41' W 074°03'0 0.0
2017-Oct-17 01:01N 40°41' W 074°03'0 0.0
2017-Oct-17 00:30N 40°41' W 074°03'1 3.0
2017-Oct-17 00:01N 40°39' W 074°04'4 7.4
2017-Oct-16 23:31N 40°39' W 074°09'3 5.5
2017-Oct-16 23:00N 40°41' W 074°08'1 1.5
2017-Oct-16 22:30N 40°42' W 074°09'3 5.7
2017-Oct-16 22:00N 40°39' W 074°09'4 7.3
2017-Oct-16 21:30N 40°40' W 074°04'4 7.5
2017-Oct-16 21:01N 40°43' W 074°02'3 6.5
2017-Oct-16 20:30N 40°46' W 074°00'0 0.0
2017-Oct-16 20:01N 40°46' W 074°00'0 0.3
2017-Oct-16 19:31N 40°46' W 074°00'0 0.4
2017-Oct-16 19:01N 40°46' W 074°00'1 1.4
2017-Oct-16 18:30N 40°45' W 074°01'0 0.3
2017-Oct-16 18:00N 40°45' W 074°01'0 0.2
2017-Oct-16 17:30N 40°45' W 074°01'0 0.1
2017-Oct-16 17:00N 40°45' W 074°01'1 2.0
2017-Oct-16 16:30N 40°44' W 074°01'1 2.7
2017-Oct-16 16:00N 40°43' W 074°02'2 3.1
2017-Oct-16 15:30N 40°41' W 074°02'2 3.2
2017-Oct-16 15:00N 40°40' W 074°03'2 4.6
2017-Oct-16 14:30N 40°39' W 074°06'3 3.1
2017-Oct-16 13:30N 40°41' W 074°08'0 0.1
2017-Oct-16 13:00N 40°41' W 074°08'0 0.0
2017-Oct-16 12:30N 40°41' W 074°08'0 0.0
2017-Oct-16 12:00N 40°41' W 074°08'0 0.0
2017-Oct-16 11:29N 40°41' W 074°08'0 0.0
2017-Oct-16 11:00N 40°41' W 074°08'0 0.0
2017-Oct-16 10:30N 40°41' W 074°08'0 0.0
2017-Oct-16 10:00N 40°41' W 074°08'0 0.0
2017-Oct-16 09:30N 40°41' W 074°08'0 0.0
2017-Oct-16 09:01N 40°41' W 074°08'0 0.0
2017-Oct-16 08:31N 40°41' W 074°08'0 0.0
2017-Oct-16 08:01N 40°41' W 074°08'0 0.0
2017-Oct-16 07:31N 40°41' W 074°08'0 0.0
2017-Oct-16 07:01N 40°41' W 074°08'0 0.0
2017-Oct-16 06:31N 40°41' W 074°08'0 0.0
2017-Oct-16 06:00N 40°41' W 074°08'0 0.0
2017-Oct-16 05:30N 40°41' W 074°08'0 0.0
2017-Oct-16 05:00N 40°41' W 074°08'0 0.0
2017-Oct-16 04:30N 40°41' W 074°08'0 0.0
2017-Oct-16 04:00N 40°41' W 074°08'0 0.0
2017-Oct-16 03:30N 40°41' W 074°08'0 0.0
2017-Oct-16 03:00N 40°41' W 074°08'0 0.0
2017-Oct-16 02:30N 40°41' W 074°08'0 0.0
2017-Oct-16 02:01N 40°41' W 074°08'0 0.0
2017-Oct-16 01:30N 40°41' W 074°08'0 0.0
2017-Oct-16 01:00N 40°41' W 074°08'0 0.1
2017-Oct-16 00:30N 40°41' W 074°08'1 1.7
2017-Oct-16 00:00N 40°42' W 074°09'0 0.0
2017-Oct-15 23:31N 40°42' W 074°09'0 0.0
2017-Oct-15 23:01N 40°42' W 074°09'0 0.0
2017-Oct-15 22:31N 40°42' W 074°09'0 0.0
2017-Oct-15 22:00N 40°42' W 074°09'1 1.9
2017-Oct-15 21:30N 40°41' W 074°08'0 0.0
2017-Oct-15 21:00N 40°41' W 074°08'1 1.5
2017-Oct-15 20:30N 40°42' W 074°09'1 1.6
2017-Oct-15 20:00N 40°41' W 074°08'0 0.1
2017-Oct-15 19:30N 40°41' W 074°08'0 0.2
2017-Oct-15 19:01N 40°41' W 074°08'0 0.2
2017-Oct-15 18:31N 40°42' W 074°08'1 0.9
2017-Oct-15 17:42N 40°42' W 074°09'0 0.0
2017-Oct-15 17:13N 40°42' W 074°09'0 0.0
2017-Oct-15 16:59N 40°42' W 074°09'0 0.0
2017-Oct-15 16:30N 40°42' W 074°09'0 0.0
2017-Oct-15 16:00N 40°42' W 074°09'0 0.0
2017-Oct-15 15:30N 40°42' W 074°09'0 0.0
2017-Oct-15 15:00N 40°42' W 074°09'0 0.0
2017-Oct-15 14:00N 40°42' W 074°09'0 0.0
2017-Oct-15 13:30N 40°42' W 074°09'0 0.0
2017-Oct-15 13:00N 40°42' W 074°09'0 0.0
2017-Oct-15 12:30N 40°42' W 074°09'0 0.0
2017-Oct-15 12:00N 40°42' W 074°09'0 0.0
2017-Oct-15 11:30N 40°42' W 074°09'0 0.0
2017-Oct-15 11:00N 40°42' W 074°09'0 0.0
2017-Oct-15 10:30N 40°42' W 074°09'0 0.0
2017-Oct-15 10:00N 40°42' W 074°09'0 0.0
2017-Oct-15 09:30N 40°42' W 074°09'0 0.0
2017-Oct-15 09:01N 40°42' W 074°09'0 0.0
2017-Oct-15 08:30N 40°42' W 074°09'0 0.0
2017-Oct-15 08:00N 40°42' W 074°09'0 0.0
2017-Oct-15 07:30N 40°42' W 074°09'0 0.0
2017-Oct-15 07:00N 40°42' W 074°09'0 0.0
2017-Oct-15 06:30N 40°42' W 074°09'0 0.0
2017-Oct-15 06:00N 40°42' W 074°09'0 0.0
2017-Oct-15 05:30N 40°42' W 074°09'3 5.7
2017-Oct-15 05:00N 40°39' W 074°09'4 7.2
2017-Oct-15 04:30N 40°39' W 074°04'2 3.9
2017-Oct-15 04:01N 40°37' W 074°03'2 3.9
2017-Oct-15 03:31N 40°39' W 074°03'2 3.2
2017-Oct-15 03:01N 40°41' W 074°04'1 1.9
2017-Oct-15 02:30N 40°41' W 074°05'0 0.0
2017-Oct-15 02:00N 40°41' W 074°05'0 0.0
2017-Oct-15 01:30N 40°41' W 074°05'0 0.0
2017-Oct-15 01:00N 40°41' W 074°05'0 0.0
2017-Oct-15 00:30N 40°41' W 074°05'0 0.0
2017-Oct-15 00:01N 40°41' W 074°05'0 0.3
2017-Oct-14 23:30N 40°41' W 074°04'2 3.9
2017-Oct-14 23:01N 40°41' W 074°02'3 5.2
2017-Oct-14 22:30N 40°42' W 073°59'2 4.7
2017-Oct-14 22:00N 40°44' W 073°57'1 1.1
2017-Oct-14 21:30N 40°44' W 073°57'0 0.0
2017-Oct-14 21:00N 40°44' W 073°57'1 2.3
2017-Oct-14 20:30N 40°44' W 073°58'4 7.8
2017-Oct-14 20:00N 40°41' W 074°02'2 3.6
2017-Oct-14 19:30N 40°41' W 074°04'0 0.4
2017-Oct-14 19:00N 40°41' W 074°05'0 0.0
2017-Oct-14 18:30N 40°41' W 074°05'0 0.0
2017-Oct-14 18:00N 40°41' W 074°05'0 0.0
2017-Oct-14 17:30N 40°41' W 074°05'0 0.0
2017-Oct-14 17:00N 40°41' W 074°05'0 0.0
2017-Oct-14 16:30N 40°41' W 074°05'0 0.0
2017-Oct-14 16:00N 40°41' W 074°05'0 0.0
2017-Oct-14 15:30N 40°41' W 074°05'0 0.1
2017-Oct-14 15:00N 40°41' W 074°05'2 3.4
2017-Oct-14 14:30N 40°41' W 074°02'4 7.6
2017-Oct-14 14:01N 40°43' W 073°58'5 8.9
2017-Oct-14 13:30N 40°47' W 073°55'4 7.5
2017-Oct-14 12:59N 40°48' W 073°51'1 0.2
2017-Oct-14 08:50N 40°48' W 073°49'4 7.9
2017-Oct-14 08:23N 40°48' W 073°54'4 9.5
2017-Oct-14 08:00N 40°46' W 073°57'4 8.5
2017-Oct-14 07:30N 40°42' W 074°00'3 6.3
2017-Oct-14 07:01N 40°41' W 074°04'0 0.3
2017-Oct-14 06:31N 40°41' W 074°04'0 0.0
2017-Oct-14 05:59N 40°41' W 074°04'0 0.0
2017-Oct-14 05:30N 40°41' W 074°04'0 0.0
2017-Oct-14 05:00N 40°41' W 074°04'0 0.0
2017-Oct-14 04:30N 40°41' W 074°04'0 0.0
2017-Oct-14 04:00N 40°41' W 074°04'0 0.4
2017-Oct-14 03:30N 40°41' W 074°05'1 1.3
2017-Oct-14 03:00N 40°41' W 074°04'3 6.0
2017-Oct-14 02:31N 40°42' W 074°00'4 7.3
2017-Oct-14 02:01N 40°44' W 073°57'0 0.2
2017-Oct-14 01:30N 40°44' W 073°57'2 3.2
2017-Oct-14 01:01N 40°43' W 073°58'2 3.2
2017-Oct-14 00:30N 40°42' W 073°60'2 3.9
2017-Oct-14 00:00N 40°41' W 074°02'2 4.3
2017-Oct-13 23:30N 40°41' W 074°04'0 0.3
2017-Oct-13 23:00N 40°41' W 074°05'1 2.4
2017-Oct-13 22:30N 40°41' W 074°03'3 5.1
2017-Oct-13 22:01N 40°42' W 074°00'3 5.5
2017-Oct-13 21:30N 40°44' W 073°58'1 2.1
2017-Oct-13 21:00N 40°44' W 073°57'1 2.9
2017-Oct-13 20:31N 40°43' W 073°55'0 0.2
2017-Oct-13 20:00N 40°43' W 073°56'2 3.1
2017-Oct-13 19:30N 40°44' W 073°57'3 6.2
2017-Oct-13 19:00N 40°42' W 073°60'3 6.9
2017-Oct-13 18:30N 40°41' W 074°04'1 1.3
2017-Oct-13 18:00N 40°41' W 074°05'0 0.0
2017-Oct-13 17:30N 40°41' W 074°05'0 0.0
2017-Oct-13 17:00N 40°41' W 074°05'0 0.0
2017-Oct-13 16:30N 40°41' W 074°05'0 0.0
2017-Oct-13 16:00N 40°41' W 074°05'1 1.9
2017-Oct-13 15:30N 40°41' W 074°04'0 0.9
2017-Oct-13 15:00N 40°41' W 074°03'1 1.4
2017-Oct-13 14:30N 40°41' W 074°04'3 5.5
2017-Oct-13 14:00N 40°41' W 074°01'4 7.1
2017-Oct-13 13:30N 40°45' W 073°58'4 8.6
2017-Oct-13 13:01N 40°48' W 073°54'3 6.7
2017-Oct-13 12:30N 40°48' W 073°50'2 4.4
2017-Oct-13 12:00N 40°49' W 073°47'1 0.3
2017-Oct-13 08:13N 40°48' W 073°47'1 6.5
2017-Oct-13 07:59N 40°48' W 073°49'4 7.4
2017-Oct-13 07:30N 40°48' W 073°54'4 8.4
2017-Oct-13 07:00N 40°45' W 073°58'4 7.8
2017-Oct-13 06:30N 40°42' W 074°01'3 5.5
2017-Oct-13 06:00N 40°41' W 074°04'0 0.0
2017-Oct-13 05:30N 40°41' W 074°04'0 0.0
2017-Oct-13 05:00N 40°41' W 074°04'0 0.0
2017-Oct-13 04:30N 40°41' W 074°04'0 0.0
2017-Oct-13 04:00N 40°41' W 074°04'0 0.0
2017-Oct-13 03:31N 40°41' W 074°04'0 0.0
2017-Oct-13 03:00N 40°41' W 074°04'0 0.0
2017-Oct-13 02:30N 40°41' W 074°04'0 0.0
2017-Oct-13 02:00N 40°41' W 074°04'0 0.0
2017-Oct-13 01:30N 40°41' W 074°04'0 0.0
2017-Oct-13 01:00N 40°41' W 074°04'0 0.0
2017-Oct-13 00:30N 40°41' W 074°04'0 0.0
2017-Oct-13 00:00N 40°41' W 074°04'0 0.0
2017-Oct-12 23:30N 40°41' W 074°04'0 0.0
2017-Oct-12 23:00N 40°41' W 074°04'2 4.2
2017-Oct-12 22:30N 40°39' W 074°05'3 5.2
2017-Oct-12 22:00N 40°40' W 074°08'1 2.2
2017-Oct-12 21:30N 40°41' W 074°08'0 0.2
2017-Oct-12 21:00N 40°41' W 074°08'0 0.1
2017-Oct-12 20:30N 40°41' W 074°08'1 1.4
2017-Oct-12 20:00N 40°42' W 074°09'0 0.2
2017-Oct-12 19:30N 40°42' W 074°09'0 0.1
2017-Oct-12 19:01N 40°42' W 074°09'0 0.0
2017-Oct-12 18:30N 40°42' W 074°09'0 0.0
2017-Oct-12 18:00N 40°42' W 074°09'1 1.6
2017-Oct-12 17:30N 40°41' W 074°08'1 1.8
2017-Oct-12 17:00N 40°42' W 074°09'0 0.0
2017-Oct-12 16:30N 40°42' W 074°09'0 0.2
2017-Oct-12 16:00N 40°42' W 074°09'0 0.1
2017-Oct-12 15:30N 40°42' W 074°09'0 0.0
2017-Oct-12 15:00N 40°42' W 074°09'0 0.0
2017-Oct-12 14:30N 40°42' W 074°09'0 0.9
2017-Oct-12 14:00N 40°42' W 074°08'1 1.1
2017-Oct-12 13:31N 40°42' W 074°09'0 0.0
2017-Oct-12 13:00N 40°42' W 074°09'0 0.0
2017-Oct-12 12:30N 40°42' W 074°09'0 0.0
2017-Oct-12 12:00N 40°42' W 074°09'0 0.0
2017-Oct-12 11:30N 40°42' W 074°09'0 0.0
2017-Oct-12 11:01N 40°42' W 074°09'0 0.0
2017-Oct-12 10:30N 40°42' W 074°09'0 0.0
2017-Oct-12 10:00N 40°42' W 074°09'1 1.9
2017-Oct-12 09:30N 40°41' W 074°08'3 5.5
2017-Oct-12 09:00N 40°39' W 074°08'3 6.4
2017-Oct-12 08:30N 40°39' W 074°04'2 3.5
2017-Oct-12 08:00N 40°41' W 074°05'2 3.9
2017-Oct-12 07:30N 40°41' W 074°02'3 6.2
2017-Oct-12 07:00N 40°43' W 073°58'2 3.7
2017-Oct-12 06:30N 40°44' W 073°56'1 2.2
2017-Oct-12 06:00N 40°43' W 073°56'0 0.3
2017-Oct-12 05:30N 40°43' W 073°55'2 3.7
2017-Oct-12 05:00N 40°44' W 073°57'4 7.8
2017-Oct-12 04:30N 40°42' W 074°01'3 5.2
2017-Oct-12 04:00N 40°41' W 074°04'0 0.3
2017-Oct-12 03:30N 40°41' W 074°05'0 0.0
2017-Oct-12 03:00N 40°41' W 074°05'0 0.0
2017-Oct-12 02:30N 40°41' W 074°05'0 0.0
2017-Oct-12 02:00N 40°41' W 074°05'0 0.0
2017-Oct-12 01:30N 40°41' W 074°05'0 0.0
2017-Oct-12 01:00N 40°41' W 074°05'0 0.0
2017-Oct-12 00:30N 40°41' W 074°05'0 0.0
2017-Oct-12 00:00N 40°41' W 074°05'0 0.0
2017-Oct-11 23:30N 40°41' W 074°05'0 0.0
2017-Oct-11 23:00N 40°41' W 074°05'0 0.1
2017-Oct-11 22:29N 40°41' W 074°05'0 0.1
2017-Oct-11 22:00N 40°41' W 074°05'0 0.0
2017-Oct-11 21:30N 40°41' W 074°05'0 0.0
2017-Oct-11 21:01N 40°41' W 074°05'0 0.0
2017-Oct-11 20:30N 40°41' W 074°05'0 0.0
2017-Oct-11 20:00N 40°41' W 074°05'0 0.0
2017-Oct-11 19:30N 40°41' W 074°05'0 0.0
2017-Oct-11 19:00N 40°41' W 074°05'0 0.0
2017-Oct-11 18:30N 40°41' W 074°05'0 0.0
2017-Oct-11 18:00N 40°41' W 074°05'0 0.0
2017-Oct-11 17:30N 40°41' W 074°05'0 0.0
2017-Oct-11 17:00N 40°41' W 074°05'0 0.0
2017-Oct-11 00:00N 40°41' W 074°05'1 2.3
2017-Oct-10 23:30N 40°40' W 074°04'3 5.6
2017-Oct-10 23:00N 40°39' W 074°07'2 3.5
2017-Oct-10 22:30N 40°40' W 074°08'1 2.0
2017-Oct-10 22:00N 40°41' W 074°08'0 0.6
2017-Oct-10 21:31N 40°41' W 074°08'0 0.8
2017-Oct-10 21:00N 40°42' W 074°08'1 1.1
2017-Oct-10 20:29N 40°42' W 074°09'0 0.0
2017-Oct-10 20:00N 40°42' W 074°09'0 0.0
2017-Oct-10 19:30N 40°42' W 074°09'1 1.3
2017-Oct-10 19:00N 40°42' W 074°08'3 5.6
2017-Oct-10 18:30N 40°39' W 074°09'2 3.6
2017-Oct-10 18:00N 40°41' W 074°09'0 0.3
2017-Oct-10 17:31N 40°41' W 074°09'0 0.1
2017-Oct-10 17:01N 40°41' W 074°09'0 0.1
2017-Oct-10 16:30N 40°41' W 074°09'1 2.4
2017-Oct-10 16:00N 40°42' W 074°09'0 0.0
2017-Oct-10 15:30N 40°42' W 074°09'1 2.3
2017-Oct-10 15:00N 40°41' W 074°09'0 0.1
2017-Oct-10 14:00N 40°41' W 074°09'0 0.0
2017-Oct-10 13:30N 40°41' W 074°09'0 0.0
2017-Oct-10 13:00N 40°41' W 074°09'0 0.0
2017-Oct-10 12:30N 40°41' W 074°09'0 0.0
2017-Oct-10 12:01N 40°41' W 074°09'0 1.0
2017-Oct-10 11:30N 40°41' W 074°08'0 0.5
2017-Oct-10 11:00N 40°41' W 074°08'1 1.4
2017-Oct-10 10:30N 40°41' W 074°09'0 0.0
2017-Oct-10 10:00N 40°41' W 074°09'0 0.0
2017-Oct-10 09:31N 40°41' W 074°09'1 1.2
2017-Oct-10 09:00N 40°41' W 074°08'0 0.0
2017-Oct-10 08:30N 40°41' W 074°08'0 0.0
2017-Oct-10 08:01N 40°41' W 074°08'0 0.0
2017-Oct-10 07:30N 40°41' W 074°08'0 0.0
2017-Oct-10 07:01N 40°41' W 074°08'0 0.0
2017-Oct-10 06:31N 40°41' W 074°08'0 0.0
2017-Oct-10 06:01N 40°41' W 074°08'0 0.0
2017-Oct-10 05:30N 40°41' W 074°08'0 0.0
2017-Oct-10 05:00N 40°41' W 074°08'0 0.0
2017-Oct-10 04:30N 40°41' W 074°08'0 0.0
2017-Oct-10 04:00N 40°41' W 074°08'0 0.0
2017-Oct-10 03:31N 40°41' W 074°08'0 0.0
2017-Oct-10 03:01N 40°41' W 074°08'0 0.0
2017-Oct-10 02:30N 40°41' W 074°08'0 0.0
2017-Oct-10 02:01N 40°41' W 074°08'0 0.0
2017-Oct-10 01:30N 40°41' W 074°08'0 0.0
2017-Oct-10 01:00N 40°41' W 074°08'  
Track history (hours):
 
Tides and Currents Weather Stations Pressure Air Temp Water Temp Dewpoint Dewpoint Depression Visibility Wind Speed Wind Dir Waves Ship Positions

Sarah Ann

Owner: Donjon Marine Co., Inc., Hillside, NJ. More information available from US FCC via Universal Licensing System and Coast Guard Vessel Documentation Center.

Last reported at 2017-Oct-20 01:00 UTC. Time now 2017-Oct-20 01:20 UTC.
Position N 40°41' W 074°05'.

Length 2 m; draft 3 m.

Type: Tug. MMSI: 366902120.

Date/timePositionNaut miles runAvg speedWind from/ knotsBaromVisibWave heightAir tempDewpointWater temp
2017-Oct-20 01:00N 40°41' W 074°05'0 0.0
2017-Oct-20 00:30N 40°41' W 074°05'0 0.0
2017-Oct-20 00:00N 40°41' W 074°05'0 0.0
2017-Oct-19 23:30N 40°41' W 074°05'0 0.0
2017-Oct-19 23:01N 40°41' W 074°05'0 0.0
2017-Oct-19 22:30N 40°41' W 074°05'0 0.0
2017-Oct-19 22:01N 40°41' W 074°05'0 0.0
2017-Oct-19 21:30N 40°41' W 074°05'0 0.0
2017-Oct-19 21:01N 40°41' W 074°05'0 0.0
2017-Oct-19 20:30N 40°41' W 074°05'1 1.8
2017-Oct-19 20:01N 40°41' W 074°04'3 5.8
2017-Oct-19 19:30N 40°39' W 074°07'2 3.8
2017-Oct-19 19:00N 40°40' W 074°08'1 1.4
2017-Oct-19 18:30N 40°40' W 074°09'3 5.5
2017-Oct-19 18:01N 40°39' W 074°05'2 4.2
2017-Oct-19 17:31N 40°41' W 074°05'2 3.3
2017-Oct-19 17:00N 40°41' W 074°02'3 6.2
2017-Oct-19 16:30N 40°44' W 074°01'3 5.7
2017-Oct-19 16:00N 40°47' W 073°60'2 4.3
2017-Oct-19 15:30N 40°49' W 073°59'3 5.3
2017-Oct-19 14:58N 40°51' W 073°57'2 4.4
2017-Oct-19 14:30N 40°53' W 073°56'5 0.1
2017-Oct-18 02:56N 40°58' W 073°54'3 7.4
2017-Oct-18 02:29N 40°55' W 073°55'4 7.7
2017-Oct-18 02:01N 40°51' W 073°57'4 8.0
2017-Oct-18 01:31N 40°48' W 073°59'4 8.3
2017-Oct-18 01:01N 40°44' W 074°01'4 7.6
2017-Oct-18 00:30N 40°40' W 074°03'1 2.6
2017-Oct-18 00:00N 40°41' W 074°05'0 0.1
2017-Oct-17 23:30N 40°41' W 074°05'0 0.2
2017-Oct-17 23:01N 40°41' W 074°04'0 0.3
2017-Oct-17 22:30N 40°41' W 074°05'0 0.0
2017-Oct-17 22:01N 40°41' W 074°05'0 0.0
2017-Oct-17 21:30N 40°41' W 074°05'0 0.0
2017-Oct-17 21:00N 40°41' W 074°05'0 0.0
2017-Oct-17 20:30N 40°41' W 074°05'0 0.0
2017-Oct-17 20:00N 40°41' W 074°05'0 0.0
2017-Oct-17 19:30N 40°41' W 074°05'0 0.0
2017-Oct-17 19:00N 40°41' W 074°05'0 0.0
2017-Oct-17 18:30N 40°41' W 074°05'0 0.0
2017-Oct-17 18:00N 40°41' W 074°05'0 0.0
2017-Oct-17 17:30N 40°41' W 074°05'0 0.0
2017-Oct-17 17:01N 40°41' W 074°05'1 1.1
2017-Oct-17 16:31N 40°41' W 074°04'1 1.5
2017-Oct-17 16:01N 40°41' W 074°03'4 7.2
2017-Oct-17 15:30N 40°44' W 074°01'2 4.1
2017-Oct-17 15:00N 40°46' W 074°00'1 1.3
2017-Oct-17 14:30N 40°45' W 074°01'3 6.9
2017-Oct-17 14:01N 40°42' W 074°02'3 6.6
2017-Oct-17 13:31N 40°39' W 074°04'4 7.2
2017-Oct-17 13:00N 40°39' W 074°09'3 5.2
2017-Oct-17 12:31N 40°41' W 074°08'0 0.2
2017-Oct-17 12:00N 40°41' W 074°08'0 0.7
2017-Oct-17 11:30N 40°41' W 074°08'0 0.8
2017-Oct-17 11:00N 40°41' W 074°08'0 0.0
2017-Oct-17 10:30N 40°41' W 074°08'0 0.0
2017-Oct-17 10:00N 40°41' W 074°08'0 0.8
2017-Oct-17 09:30N 40°42' W 074°09'3 6.4
2017-Oct-17 09:00N 40°39' W 074°09'4 7.8
2017-Oct-17 08:31N 40°40' W 074°04'4 7.4
2017-Oct-17 08:01N 40°43' W 074°01'3 5.5
2017-Oct-17 07:31N 40°46' W 074°00'0 0.6
2017-Oct-17 07:01N 40°46' W 074°00'0 0.5
2017-Oct-17 06:31N 40°46' W 074°01'0 0.3
2017-Oct-17 06:00N 40°45' W 074°01'2 3.4
2017-Oct-17 05:30N 40°44' W 074°01'2 4.5
2017-Oct-17 05:01N 40°42' W 074°02'1 2.5
2017-Oct-17 04:30N 40°41' W 074°03'0 0.0
2017-Oct-17 04:01N 40°41' W 074°03'0 0.0
2017-Oct-17 03:30N 40°41' W 074°03'0 0.0
2017-Oct-17 03:01N 40°41' W 074°03'0 0.0
2017-Oct-17 02:31N 40°41' W 074°03'0 0.0
2017-Oct-17 02:00N 40°41' W 074°03'0 0.0
2017-Oct-17 01:31N 40°41' W 074°03'0 0.0
2017-Oct-17 01:01N 40°41' W 074°03'0 0.0
2017-Oct-17 00:30N 40°41' W 074°03'1 3.0
2017-Oct-17 00:01N 40°39' W 074°04'4 7.4
2017-Oct-16 23:31N 40°39' W 074°09'3 5.5
2017-Oct-16 23:00N 40°41' W 074°08'1 1.5
2017-Oct-16 22:30N 40°42' W 074°09'3 5.7
2017-Oct-16 22:00N 40°39' W 074°09'4 7.3
2017-Oct-16 21:30N 40°40' W 074°04'4 7.5
2017-Oct-16 21:01N 40°43' W 074°02'3 6.5
2017-Oct-16 20:30N 40°46' W 074°00'0 0.0
2017-Oct-16 20:01N 40°46' W 074°00'0 0.3
2017-Oct-16 19:31N 40°46' W 074°00'0 0.4
2017-Oct-16 19:01N 40°46' W 074°00'1 1.4
2017-Oct-16 18:30N 40°45' W 074°01'0 0.3
2017-Oct-16 18:00N 40°45' W 074°01'0 0.2
2017-Oct-16 17:30N 40°45' W 074°01'0 0.1
2017-Oct-16 17:00N 40°45' W 074°01'1 2.0
2017-Oct-16 16:30N 40°44' W 074°01'1 2.7
2017-Oct-16 16:00N 40°43' W 074°02'2 3.1
2017-Oct-16 15:30N 40°41' W 074°02'2 3.2
2017-Oct-16 15:00N 40°40' W 074°03'2 4.6
2017-Oct-16 14:30N 40°39' W 074°06'3 3.1
2017-Oct-16 13:30N 40°41' W 074°08'0 0.1
2017-Oct-16 13:00N 40°41' W 074°08'0 0.0
2017-Oct-16 12:30N 40°41' W 074°08'0 0.0
2017-Oct-16 12:00N 40°41' W 074°08'0 0.0
2017-Oct-16 11:29N 40°41' W 074°08'0 0.0
2017-Oct-16 11:00N 40°41' W 074°08'0 0.0
2017-Oct-16 10:30N 40°41' W 074°08'0 0.0
2017-Oct-16 10:00N 40°41' W 074°08'0 0.0
2017-Oct-16 09:30N 40°41' W 074°08'0 0.0
2017-Oct-16 09:01N 40°41' W 074°08'0 0.0
2017-Oct-16 08:31N 40°41' W 074°08'0 0.0
2017-Oct-16 08:01N 40°41' W 074°08'0 0.0
2017-Oct-16 07:31N 40°41' W 074°08'0 0.0
2017-Oct-16 07:01N 40°41' W 074°08'0 0.0
2017-Oct-16 06:31N 40°41' W 074°08'0 0.0
2017-Oct-16 06:00N 40°41' W 074°08'0 0.0
2017-Oct-16 05:30N 40°41' W 074°08'0 0.0
2017-Oct-16 05:00N 40°41' W 074°08'0 0.0
2017-Oct-16 04:30N 40°41' W 074°08'0 0.0
2017-Oct-16 04:00N 40°41' W 074°08'0 0.0
2017-Oct-16 03:30N 40°41' W 074°08'0 0.0
2017-Oct-16 03:00N 40°41' W 074°08'0 0.0
2017-Oct-16 02:30N 40°41' W 074°08'0 0.0
2017-Oct-16 02:01N 40°41' W 074°08'0 0.0
2017-Oct-16 01:30N 40°41' W 074°08'0 0.0
2017-Oct-16 01:00N 40°41' W 074°08'0 0.1
2017-Oct-16 00:30N 40°41' W 074°08'1 1.7
2017-Oct-16 00:00N 40°42' W 074°09'0 0.0
2017-Oct-15 23:31N 40°42' W 074°09'0 0.0
2017-Oct-15 23:01N 40°42' W 074°09'0 0.0
2017-Oct-15 22:31N 40°42' W 074°09'0 0.0
2017-Oct-15 22:00N 40°42' W 074°09'1 1.9
2017-Oct-15 21:30N 40°41' W 074°08'0 0.0
2017-Oct-15 21:00N 40°41' W 074°08'1 1.5
2017-Oct-15 20:30N 40°42' W 074°09'1 1.6
2017-Oct-15 20:00N 40°41' W 074°08'0 0.1
2017-Oct-15 19:30N 40°41' W 074°08'0 0.2
2017-Oct-15 19:01N 40°41' W 074°08'0 0.2
2017-Oct-15 18:31N 40°42' W 074°08'1 0.9
2017-Oct-15 17:42N 40°42' W 074°09'0 0.0
2017-Oct-15 17:13N 40°42' W 074°09'0 0.0
2017-Oct-15 16:59N 40°42' W 074°09'0 0.0
2017-Oct-15 16:30N 40°42' W 074°09'0 0.0
2017-Oct-15 16:00N 40°42' W 074°09'0 0.0
2017-Oct-15 15:30N 40°42' W 074°09'0 0.0
2017-Oct-15 15:00N 40°42' W 074°09'0 0.0
2017-Oct-15 14:00N 40°42' W 074°09'0 0.0
2017-Oct-15 13:30N 40°42' W 074°09'0 0.0
2017-Oct-15 13:00N 40°42' W 074°09'0 0.0
2017-Oct-15 12:30N 40°42' W 074°09'0 0.0
2017-Oct-15 12:00N 40°42' W 074°09'0 0.0
2017-Oct-15 11:30N 40°42' W 074°09'0 0.0
2017-Oct-15 11:00N 40°42' W 074°09'0 0.0
2017-Oct-15 10:30N 40°42' W 074°09'0 0.0
2017-Oct-15 10:00N 40°42' W 074°09'0 0.0
2017-Oct-15 09:30N 40°42' W 074°09'0 0.0
2017-Oct-15 09:01N 40°42' W 074°09'0 0.0
2017-Oct-15 08:30N 40°42' W 074°09'0 0.0
2017-Oct-15 08:00N 40°42' W 074°09'0 0.0
2017-Oct-15 07:30N 40°42' W 074°09'0 0.0
2017-Oct-15 07:00N 40°42' W 074°09'0 0.0
2017-Oct-15 06:30N 40°42' W 074°09'0 0.0
2017-Oct-15 06:00N 40°42' W 074°09'0 0.0
2017-Oct-15 05:30N 40°42' W 074°09'3 5.7
2017-Oct-15 05:00N 40°39' W 074°09'4 7.2
2017-Oct-15 04:30N 40°39' W 074°04'2 3.9
2017-Oct-15 04:01N 40°37' W 074°03'2 3.9
2017-Oct-15 03:31N 40°39' W 074°03'2 3.2
2017-Oct-15 03:01N 40°41' W 074°04'1 1.9
2017-Oct-15 02:30N 40°41' W 074°05'0 0.0
2017-Oct-15 02:00N 40°41' W 074°05'0 0.0
2017-Oct-15 01:30N 40°41' W 074°05'0 0.0
2017-Oct-15 01:00N 40°41' W 074°05'0 0.0
2017-Oct-15 00:30N 40°41' W 074°05'0 0.0
2017-Oct-15 00:01N 40°41' W 074°05'0 0.3
2017-Oct-14 23:30N 40°41' W 074°04'2 3.9
2017-Oct-14 23:01N 40°41' W 074°02'3 5.2
2017-Oct-14 22:30N 40°42' W 073°59'2 4.7
2017-Oct-14 22:00N 40°44' W 073°57'1 1.1
2017-Oct-14 21:30N 40°44' W 073°57'0 0.0
2017-Oct-14 21:00N 40°44' W 073°57'1 2.3
2017-Oct-14 20:30N 40°44' W 073°58'4 7.8
2017-Oct-14 20:00N 40°41' W 074°02'2 3.6
2017-Oct-14 19:30N 40°41' W 074°04'0 0.4
2017-Oct-14 19:00N 40°41' W 074°05'0 0.0
2017-Oct-14 18:30N 40°41' W 074°05'0 0.0
2017-Oct-14 18:00N 40°41' W 074°05'0 0.0
2017-Oct-14 17:30N 40°41' W 074°05'0 0.0
2017-Oct-14 17:00N 40°41' W 074°05'0 0.0
2017-Oct-14 16:30N 40°41' W 074°05'0 0.0
2017-Oct-14 16:00N 40°41' W 074°05'0 0.0
2017-Oct-14 15:30N 40°41' W 074°05'0 0.1
2017-Oct-14 15:00N 40°41' W 074°05'2 3.4
2017-Oct-14 14:30N 40°41' W 074°02'4 7.6
2017-Oct-14 14:01N 40°43' W 073°58'5 8.9
2017-Oct-14 13:30N 40°47' W 073°55'4 7.5
2017-Oct-14 12:59N 40°48' W 073°51'1 0.2
2017-Oct-14 08:50N 40°48' W 073°49'4 7.9
2017-Oct-14 08:23N 40°48' W 073°54'4 9.5
2017-Oct-14 08:00N 40°46' W 073°57'4 8.5
2017-Oct-14 07:30N 40°42' W 074°00'3 6.3
2017-Oct-14 07:01N 40°41' W 074°04'0 0.3
2017-Oct-14 06:31N 40°41' W 074°04'0 0.0
2017-Oct-14 05:59N 40°41' W 074°04'0 0.0
2017-Oct-14 05:30N 40°41' W 074°04'0 0.0
2017-Oct-14 05:00N 40°41' W 074°04'0 0.0
2017-Oct-14 04:30N 40°41' W 074°04'0 0.0
2017-Oct-14 04:00N 40°41' W 074°04'0 0.4
2017-Oct-14 03:30N 40°41' W 074°05'1 1.3
2017-Oct-14 03:00N 40°41' W 074°04'3 6.0
2017-Oct-14 02:31N 40°42' W 074°00'4 7.3
2017-Oct-14 02:01N 40°44' W 073°57'0 0.2
2017-Oct-14 01:30N 40°44' W 073°57'2 3.2
2017-Oct-14 01:01N 40°43' W 073°58'2 3.2
2017-Oct-14 00:30N 40°42' W 073°60'2 3.9
2017-Oct-14 00:00N 40°41' W 074°02'2 4.3
2017-Oct-13 23:30N 40°41' W 074°04'0 0.3
2017-Oct-13 23:00N 40°41' W 074°05'1 2.4
2017-Oct-13 22:30N 40°41' W 074°03'3 5.1
2017-Oct-13 22:01N 40°42' W 074°00'3 5.5
2017-Oct-13 21:30N 40°44' W 073°58'1 2.1
2017-Oct-13 21:00N 40°44' W 073°57'1 2.9
2017-Oct-13 20:31N 40°43' W 073°55'0 0.2
2017-Oct-13 20:00N 40°43' W 073°56'2 3.1
2017-Oct-13 19:30N 40°44' W 073°57'3 6.2
2017-Oct-13 19:00N 40°42' W 073°60'3 6.9
2017-Oct-13 18:30N 40°41' W 074°04'1 1.3
2017-Oct-13 18:00N 40°41' W 074°05'0 0.0
2017-Oct-13 17:30N 40°41' W 074°05'0 0.0
2017-Oct-13 17:00N 40°41' W 074°05'0 0.0
2017-Oct-13 16:30N 40°41' W 074°05'0 0.0
2017-Oct-13 16:00N 40°41' W 074°05'1 1.9
2017-Oct-13 15:30N 40°41' W 074°04'0 0.9
2017-Oct-13 15:00N 40°41' W 074°03'1 1.4
2017-Oct-13 14:30N 40°41' W 074°04'3 5.5
2017-Oct-13 14:00N 40°41' W 074°01'4 7.1
2017-Oct-13 13:30N 40°45' W 073°58'4 8.6
2017-Oct-13 13:01N 40°48' W 073°54'3 6.7
2017-Oct-13 12:30N 40°48' W 073°50'2 4.4
2017-Oct-13 12:00N 40°49' W 073°47'1 0.3
2017-Oct-13 08:13N 40°48' W 073°47'1 6.5
2017-Oct-13 07:59N 40°48' W 073°49'4 7.4
2017-Oct-13 07:30N 40°48' W 073°54'4 8.4
2017-Oct-13 07:00N 40°45' W 073°58'4 7.8
2017-Oct-13 06:30N 40°42' W 074°01'3 5.5
2017-Oct-13 06:00N 40°41' W 074°04'0 0.0
2017-Oct-13 05:30N 40°41' W 074°04'0 0.0
2017-Oct-13 05:00N 40°41' W 074°04'0 0.0
2017-Oct-13 04:30N 40°41' W 074°04'0 0.0
2017-Oct-13 04:00N 40°41' W 074°04'0 0.0
2017-Oct-13 03:31N 40°41' W 074°04'0 0.0
2017-Oct-13 03:00N 40°41' W 074°04'0 0.0
2017-Oct-13 02:30N 40°41' W 074°04'0 0.0
2017-Oct-13 02:00N 40°41' W 074°04'0 0.0
2017-Oct-13 01:30N 40°41' W 074°04'0 0.0
2017-Oct-13 01:00N 40°41' W 074°04'0 0.0
2017-Oct-13 00:30N 40°41' W 074°04'0 0.0
2017-Oct-13 00:00N 40°41' W 074°04'0 0.0
2017-Oct-12 23:30N 40°41' W 074°04'0 0.0
2017-Oct-12 23:00N 40°41' W 074°04'2 4.2
2017-Oct-12 22:30N 40°39' W 074°05'3 5.2
2017-Oct-12 22:00N 40°40' W 074°08'1 2.2
2017-Oct-12 21:30N 40°41' W 074°08'0 0.2
2017-Oct-12 21:00N 40°41' W 074°08'0 0.1
2017-Oct-12 20:30N 40°41' W 074°08'1 1.4
2017-Oct-12 20:00N 40°42' W 074°09'0 0.2
2017-Oct-12 19:30N 40°42' W 074°09'0 0.1
2017-Oct-12 19:01N 40°42' W 074°09'0 0.0
2017-Oct-12 18:30N 40°42' W 074°09'0 0.0
2017-Oct-12 18:00N 40°42' W 074°09'1 1.6
2017-Oct-12 17:30N 40°41' W 074°08'1 1.8
2017-Oct-12 17:00N 40°42' W 074°09'0 0.0
2017-Oct-12 16:30N 40°42' W 074°09'0 0.2
2017-Oct-12 16:00N 40°42' W 074°09'0 0.1
2017-Oct-12 15:30N 40°42' W 074°09'0 0.0
2017-Oct-12 15:00N 40°42' W 074°09'0 0.0
2017-Oct-12 14:30N 40°42' W 074°09'0 0.9
2017-Oct-12 14:00N 40°42' W 074°08'1 1.1
2017-Oct-12 13:31N 40°42' W 074°09'0 0.0
2017-Oct-12 13:00N 40°42' W 074°09'0 0.0
2017-Oct-12 12:30N 40°42' W 074°09'0 0.0
2017-Oct-12 12:00N 40°42' W 074°09'0 0.0
2017-Oct-12 11:30N 40°42' W 074°09'0 0.0
2017-Oct-12 11:01N 40°42' W 074°09'0 0.0
2017-Oct-12 10:30N 40°42' W 074°09'0 0.0
2017-Oct-12 10:00N 40°42' W 074°09'1 1.9
2017-Oct-12 09:30N 40°41' W 074°08'3 5.5
2017-Oct-12 09:00N 40°39' W 074°08'3 6.4
2017-Oct-12 08:30N 40°39' W 074°04'2 3.5
2017-Oct-12 08:00N 40°41' W 074°05'2 3.9
2017-Oct-12 07:30N 40°41' W 074°02'3 6.2
2017-Oct-12 07:00N 40°43' W 073°58'2 3.7
2017-Oct-12 06:30N 40°44' W 073°56'1 2.2
2017-Oct-12 06:00N 40°43' W 073°56'0 0.3
2017-Oct-12 05:30N 40°43' W 073°55'2 3.7
2017-Oct-12 05:00N 40°44' W 073°57'4 7.8
2017-Oct-12 04:30N 40°42' W 074°01'3 5.2
2017-Oct-12 04:00N 40°41' W 074°04'0 0.3
2017-Oct-12 03:30N 40°41' W 074°05'0 0.0
2017-Oct-12 03:00N 40°41' W 074°05'0 0.0
2017-Oct-12 02:30N 40°41' W 074°05'0 0.0
2017-Oct-12 02:00N 40°41' W 074°05'0 0.0
2017-Oct-12 01:30N 40°41' W 074°05'0 0.0
2017-Oct-12 01:00N 40°41' W 074°05'0 0.0
2017-Oct-12 00:30N 40°41' W 074°05'0 0.0
2017-Oct-12 00:00N 40°41' W 074°05'0 0.0
2017-Oct-11 23:30N 40°41' W 074°05'0 0.0
2017-Oct-11 23:00N 40°41' W 074°05'0 0.1
2017-Oct-11 22:29N 40°41' W 074°05'0 0.1
2017-Oct-11 22:00N 40°41' W 074°05'0 0.0
2017-Oct-11 21:30N 40°41' W 074°05'0 0.0
2017-Oct-11 21:01N 40°41' W 074°05'0 0.0
2017-Oct-11 20:30N 40°41' W 074°05'0 0.0
2017-Oct-11 20:00N 40°41' W 074°05'0 0.0
2017-Oct-11 19:30N 40°41' W 074°05'0 0.0
2017-Oct-11 19:00N 40°41' W 074°05'0 0.0
2017-Oct-11 18:30N 40°41' W 074°05'0 0.0
2017-Oct-11 18:00N 40°41' W 074°05'0 0.0
2017-Oct-11 17:30N 40°41' W 074°05'0 0.0
2017-Oct-11 17:00N 40°41' W 074°05'0 0.0
2017-Oct-11 00:00N 40°41' W 074°05'1 2.3
2017-Oct-10 23:30N 40°40' W 074°04'3 5.6
2017-Oct-10 23:00N 40°39' W 074°07'2 3.5
2017-Oct-10 22:30N 40°40' W 074°08'1 2.0
2017-Oct-10 22:00N 40°41' W 074°08'0 0.6
2017-Oct-10 21:31N 40°41' W 074°08'0 0.8
2017-Oct-10 21:00N 40°42' W 074°08'1 1.1
2017-Oct-10 20:29N 40°42' W 074°09'0 0.0
2017-Oct-10 20:00N 40°42' W 074°09'0 0.0
2017-Oct-10 19:30N 40°42' W 074°09'1 1.3
2017-Oct-10 19:00N 40°42' W 074°08'3 5.6
2017-Oct-10 18:30N 40°39' W 074°09'2 3.6
2017-Oct-10 18:00N 40°41' W 074°09'0 0.3
2017-Oct-10 17:31N 40°41' W 074°09'0 0.1
2017-Oct-10 17:01N 40°41' W 074°09'0 0.1
2017-Oct-10 16:30N 40°41' W 074°09'1 2.4
2017-Oct-10 16:00N 40°42' W 074°09'0 0.0
2017-Oct-10 15:30N 40°42' W 074°09'1 2.3
2017-Oct-10 15:00N 40°41' W 074°09'0 0.1
2017-Oct-10 14:00N 40°41' W 074°09'0 0.0
2017-Oct-10 13:30N 40°41' W 074°09'0 0.0
2017-Oct-10 13:00N 40°41' W 074°09'0 0.0
2017-Oct-10 12:30N 40°41' W 074°09'0 0.0
2017-Oct-10 12:01N 40°41' W 074°09'0 1.0
2017-Oct-10 11:30N 40°41' W 074°08'0 0.5
2017-Oct-10 11:00N 40°41' W 074°08'1 1.4
2017-Oct-10 10:30N 40°41' W 074°09'0 0.0
2017-Oct-10 10:00N 40°41' W 074°09'0 0.0
2017-Oct-10 09:31N 40°41' W 074°09'1 1.2
2017-Oct-10 09:00N 40°41' W 074°08'0 0.0
2017-Oct-10 08:30N 40°41' W 074°08'0 0.0
2017-Oct-10 08:01N 40°41' W 074°08'0 0.0
2017-Oct-10 07:30N 40°41' W 074°08'0 0.0
2017-Oct-10 07:01N 40°41' W 074°08'0 0.0
2017-Oct-10 06:31N 40°41' W 074°08'0 0.0
2017-Oct-10 06:01N 40°41' W 074°08'0 0.0
2017-Oct-10 05:30N 40°41' W 074°08'0 0.0
2017-Oct-10 05:00N 40°41' W 074°08'0 0.0
2017-Oct-10 04:30N 40°41' W 074°08'0 0.0
2017-Oct-10 04:00N 40°41' W 074°08'0 0.0
2017-Oct-10 03:31N 40°41' W 074°08'0 0.0
2017-Oct-10 03:01N 40°41' W 074°08'0 0.0
2017-Oct-10 02:30N 40°41' W 074°08'0 0.0
2017-Oct-10 02:01N 40°41' W 074°08'0 0.0
2017-Oct-10 01:30N 40°41' W 074°08'0 0.0
2017-Oct-10 01:00N 40°41' W 074°08'  

Dump ship's entire track history